To NAV CANADA Home Page Login to a new session Search on AWWS site Disclaimer Vers la page française équivalente Tips FAQ What's new on the site To the Forecasts and Observations / NOTAM section To "File a Flight Plan" website Publications and other links Update of the User's profile FIC Telephone Numbers My Weather Data Folder Route Weather Data Regional Weather Data Local Weather Data To the Forecasts and Observations / NOTAM section
Request Generated 11/13/2018 at 18:22:03 UTC . Weather information available at that time is displayed.

METAR/TAF

MONTREAL INTL (MIRABEL)/QC    

METAR CYMX 131800Z VRB02KT 3SM -SN OVC005 00/M01 A2993 RMK SF8 SLP140=
SPECI CYMX 131740Z 00000KT 3SM -SN OVC005 M00/M01 A2994 RMK SF8 SLP143=
METAR CYMX 131700Z CCA 01002KT 3SM -SN OVC004 M01/M02 A2995 RMK SF8 /S02/ PRESFR SLP149=
METAR CYMX 131700Z 01002KT 3SM -SN OVC004 M01/M02 A2995 RMK SF8 PRESFR SLP149=
METAR CYMX 131600Z VRB02KT 3SM -SN OVC004 M01/M02 A3000 RMK SF8 SLP167=

TAF CYMX 131742Z 1318/1418 VRB03KT 21/2SM -SN OVC004 TEMPO 1318/1320
6SM -SN OVC008
FM132000 VRB03KT 4SM -SN OVC015 TEMPO 1320/1323 P6SM NSW OVC025
PROB40 1320/1323 3SM -SN OVC008
FM132300 30012KT P6SM SCT020 BKN060 TEMPO 1323/1402 BKN020
FM140200 29015KT P6SM SCT040
FM141200 28010G20KT P6SM BKN025
FM141500 28012G22KT P6SM SCT030
RMK NXT FCST BY 140000Z=
Your time UTC time
Weather data provided by Environment Canada and NAV CANADA